sensor_id;sensor_type;location;lat;lon;timestamp;P1;durP1;ratioP1;P2;durP2;ratioP2
4112;SDS011;2070;51.042;7.056;2023-04-25T00:00:09;9.30;;;3.10;;
4112;SDS011;2070;51.042;7.056;2023-04-25T00:02:35;10.33;;;3.07;;
4112;SDS011;2070;51.042;7.056;2023-04-25T00:05:01;8.10;;;2.90;;
4112;SDS011;2070;51.042;7.056;2023-04-25T00:07:26;10.20;;;3.47;;
4112;SDS011;2070;51.042;7.056;2023-04-25T00:09:52;12.03;;;3.50;;
4112;SDS011;2070;51.042;7.056;2023-04-25T00:12:17;7.63;;;3.90;;
4112;SDS011;2070;51.042;7.056;2023-04-25T00:14:42;10.70;;;4.50;;
4112;SDS011;2070;51.042;7.056;2023-04-25T00:17:07;12.27;;;4.37;;
4112;SDS011;2070;51.042;7.056;2023-04-25T00:19:33;14.10;;;4.50;;
4112;SDS011;2070;51.042;7.056;2023-04-25T00:21:59;7.43;;;3.77;;
4112;SDS011;2070;51.042;7.056;2023-04-25T00:24:24;7.60;;;4.70;;
4112;SDS011;2070;51.042;7.056;2023-04-25T00:26:50;8.97;;;4.43;;
4112;SDS011;2070;51.042;7.056;2023-04-25T00:29:15;16.20;;;3.67;;
4112;SDS011;2070;51.042;7.056;2023-04-25T00:31:40;10.37;;;4.40;;
4112;SDS011;2070;51.042;7.056;2023-04-25T00:34:06;13.80;;;5.93;;
4112;SDS011;2070;51.042;7.056;2023-04-25T00:36:31;17.33;;;3.97;;
4112;SDS011;2070;51.042;7.056;2023-04-25T00:38:56;10.73;;;5.00;;
4112;SDS011;2070;51.042;7.056;2023-04-25T00:41:22;12.23;;;4.83;;
4112;SDS011;2070;51.042;7.056;2023-04-25T00:43:47;7.60;;;4.67;;
4112;SDS011;2070;51.042;7.056;2023-04-25T00:46:13;8.77;;;5.27;;
4112;SDS011;2070;51.042;7.056;2023-04-25T00:48:38;15.40;;;6.20;;
4112;SDS011;2070;51.042;7.056;2023-04-25T00:51:03;8.77;;;4.37;;
4112;SDS011;2070;51.042;7.056;2023-04-25T00:53:28;19.27;;;6.03;;
4112;SDS011;2070;51.042;7.056;2023-04-25T00:55:54;24.87;;;6.10;;
4112;SDS011;2070;51.042;7.056;2023-04-25T00:58:20;7.27;;;4.80;;
4112;SDS011;2070;51.042;7.056;2023-04-25T01:00:46;10.50;;;4.40;;
4112;SDS011;2070;51.042;7.056;2023-04-25T01:03:12;15.60;;;5.70;;
4112;SDS011;2070;51.042;7.056;2023-04-25T01:05:38;16.53;;;5.53;;
4112;SDS011;2070;51.042;7.056;2023-04-25T01:08:04;14.13;;;5.93;;
4112;SDS011;2070;51.042;7.056;2023-04-25T01:10:29;15.50;;;5.33;;
4112;SDS011;2070;51.042;7.056;2023-04-25T01:12:55;21.63;;;6.77;;
4112;SDS011;2070;51.042;7.056;2023-04-25T01:15:20;29.10;;;6.60;;
4112;SDS011;2070;51.042;7.056;2023-04-25T01:17:45;13.80;;;4.50;;
4112;SDS011;2070;51.042;7.056;2023-04-25T01:20:11;11.30;;;4.63;;
4112;SDS011;2070;51.042;7.056;2023-04-25T01:22:37;17.03;;;4.57;;
4112;SDS011;2070;51.042;7.056;2023-04-25T01:25:03;12.27;;;5.20;;
4112;SDS011;2070;51.042;7.056;2023-04-25T01:27:28;28.37;;;5.17;;
4112;SDS011;2070;51.042;7.056;2023-04-25T01:29:54;15.67;;;4.20;;
4112;SDS011;2070;51.042;7.056;2023-04-25T01:32:19;13.27;;;4.77;;
4112;SDS011;2070;51.042;7.056;2023-04-25T01:34:45;9.97;;;3.50;;
4112;SDS011;2070;51.042;7.056;2023-04-25T01:37:10;14.87;;;5.43;;
4112;SDS011;2070;51.042;7.056;2023-04-25T01:39:35;23.33;;;5.10;;
4112;SDS011;2070;51.042;7.056;2023-04-25T01:42:01;33.23;;;4.70;;
4112;SDS011;2070;51.042;7.056;2023-04-25T01:44:26;9.40;;;3.93;;
4112;SDS011;2070;51.042;7.056;2023-04-25T01:46:52;10.83;;;4.23;;
4112;SDS011;2070;51.042;7.056;2023-04-25T01:49:17;14.70;;;4.37;;
4112;SDS011;2070;51.042;7.056;2023-04-25T01:51:42;24.03;;;4.53;;
4112;SDS011;2070;51.042;7.056;2023-04-25T01:54:08;11.80;;;4.03;;
4112;SDS011;2070;51.042;7.056;2023-04-25T01:56:36;21.37;;;4.33;;
4112;SDS011;2070;51.042;7.056;2023-04-25T01:59:02;32.33;;;4.30;;
4112;SDS011;2070;51.042;7.056;2023-04-25T02:01:27;17.93;;;5.63;;
4112;SDS011;2070;51.042;7.056;2023-04-25T02:03:52;15.77;;;4.77;;
4112;SDS011;2070;51.042;7.056;2023-04-25T02:06:18;18.57;;;5.43;;
4112;SDS011;2070;51.042;7.056;2023-04-25T02:08:43;13.17;;;4.67;;
4112;SDS011;2070;51.042;7.056;2023-04-25T02:11:08;14.77;;;4.70;;
4112;SDS011;2070;51.042;7.056;2023-04-25T02:13:33;19.00;;;4.43;;
4112;SDS011;2070;51.042;7.056;2023-04-25T02:15:59;20.70;;;4.80;;
4112;SDS011;2070;51.042;7.056;2023-04-25T02:18:24;9.60;;;4.00;;
4112;SDS011;2070;51.042;7.056;2023-04-25T02:20:51;12.63;;;4.90;;
4112;SDS011;2070;51.042;7.056;2023-04-25T02:23:16;6.93;;;3.80;;
4112;SDS011;2070;51.042;7.056;2023-04-25T02:25:41;30.87;;;4.73;;
4112;SDS011;2070;51.042;7.056;2023-04-25T02:28:06;7.53;;;2.50;;
4112;SDS011;2070;51.042;7.056;2023-04-25T02:30:32;4.47;;;3.40;;
4112;SDS011;2070;51.042;7.056;2023-04-25T02:32:57;36.73;;;4.20;;
4112;SDS011;2070;51.042;7.056;2023-04-25T02:35:22;16.13;;;4.30;;
4112;SDS011;2070;51.042;7.056;2023-04-25T02:37:47;10.47;;;4.50;;
4112;SDS011;2070;51.042;7.056;2023-04-25T02:40:12;10.93;;;4.30;;
4112;SDS011;2070;51.042;7.056;2023-04-25T02:42:38;17.87;;;4.10;;
4112;SDS011;2070;51.042;7.056;2023-04-25T02:45:03;11.53;;;3.40;;
4112;SDS011;2070;51.042;7.056;2023-04-25T02:47:28;9.50;;;3.53;;
4112;SDS011;2070;51.042;7.056;2023-04-25T02:49:54;21.40;;;3.90;;
4112;SDS011;2070;51.042;7.056;2023-04-25T02:52:19;10.83;;;3.53;;
4112;SDS011;2070;51.042;7.056;2023-04-25T02:54:46;10.70;;;3.93;;
4112;SDS011;2070;51.042;7.056;2023-04-25T02:57:11;4.90;;;2.80;;
4112;SDS011;2070;51.042;7.056;2023-04-25T02:59:36;8.50;;;4.00;;
4112;SDS011;2070;51.042;7.056;2023-04-25T03:02:01;24.23;;;3.20;;
4112;SDS011;2070;51.042;7.056;2023-04-25T03:04:27;17.53;;;4.13;;
4112;SDS011;2070;51.042;7.056;2023-04-25T03:06:52;19.50;;;4.17;;
4112;SDS011;2070;51.042;7.056;2023-04-25T03:09:18;6.40;;;2.53;;
4112;SDS011;2070;51.042;7.056;2023-04-25T03:11:43;20.30;;;3.53;;
4112;SDS011;2070;51.042;7.056;2023-04-25T03:14:09;10.07;;;3.77;;
4112;SDS011;2070;51.042;7.056;2023-04-25T03:16:34;14.07;;;3.57;;
4112;SDS011;2070;51.042;7.056;2023-04-25T03:19:00;5.93;;;3.30;;
4112;SDS011;2070;51.042;7.056;2023-04-25T03:21:25;17.60;;;4.10;;
4112;SDS011;2070;51.042;7.056;2023-04-25T03:23:51;4.47;;;2.53;;
4112;SDS011;2070;51.042;7.056;2023-04-25T03:26:16;10.43;;;3.77;;
4112;SDS011;2070;51.042;7.056;2023-04-25T03:28:41;3.43;;;3.10;;
4112;SDS011;2070;51.042;7.056;2023-04-25T03:31:07;8.30;;;3.23;;
4112;SDS011;2070;51.042;7.056;2023-04-25T03:33:32;7.90;;;3.60;;
4112;SDS011;2070;51.042;7.056;2023-04-25T03:35:57;8.30;;;3.13;;
4112;SDS011;2070;51.042;7.056;2023-04-25T03:38:22;17.53;;;3.20;;
4112;SDS011;2070;51.042;7.056;2023-04-25T03:40:48;11.23;;;3.70;;
4112;SDS011;2070;51.042;7.056;2023-04-25T03:43:13;3.60;;;3.07;;
4112;SDS011;2070;51.042;7.056;2023-04-25T03:45:38;11.60;;;3.67;;
4112;SDS011;2070;51.042;7.056;2023-04-25T03:48:03;18.60;;;5.53;;
4112;SDS011;2070;51.042;7.056;2023-04-25T03:50:29;8.30;;;3.07;;
4112;SDS011;2070;51.042;7.056;2023-04-25T03:52:54;5.80;;;4.03;;
4112;SDS011;2070;51.042;7.056;2023-04-25T03:55:19;10.43;;;3.77;;
4112;SDS011;2070;51.042;7.056;2023-04-25T03:57:44;14.23;;;3.50;;
4112;SDS011;2070;51.042;7.056;2023-04-25T04:00:10;17.70;;;4.60;;
4112;SDS011;2070;51.042;7.056;2023-04-25T04:02:35;13.33;;;3.23;;
4112;SDS011;2070;51.042;7.056;2023-04-25T04:05:02;10.70;;;3.00;;
4112;SDS011;2070;51.042;7.056;2023-04-25T04:07:27;16.63;;;3.80;;
4112;SDS011;2070;51.042;7.056;2023-04-25T04:09:52;17.03;;;3.70;;
4112;SDS011;2070;51.042;7.056;2023-04-25T04:12:18;10.47;;;3.80;;
4112;SDS011;2070;51.042;7.056;2023-04-25T04:14:43;4.70;;;3.40;;
4112;SDS011;2070;51.042;7.056;2023-04-25T04:17:08;5.67;;;2.90;;
4112;SDS011;2070;51.042;7.056;2023-04-25T04:19:33;8.50;;;3.70;;
4112;SDS011;2070;51.042;7.056;2023-04-25T04:21:58;8.70;;;3.50;;
4112;SDS011;2070;51.042;7.056;2023-04-25T04:24:24;27.77;;;4.23;;
4112;SDS011;2070;51.042;7.056;2023-04-25T04:26:49;5.27;;;3.40;;
4112;SDS011;2070;51.042;7.056;2023-04-25T04:29:15;13.40;;;4.23;;
4112;SDS011;2070;51.042;7.056;2023-04-25T04:31:46;16.37;;;4.33;;
4112;SDS011;2070;51.042;7.056;2023-04-25T04:34:11;3.37;;;2.73;;
4112;SDS011;2070;51.042;7.056;2023-04-25T04:36:36;10.23;;;4.13;;
4112;SDS011;2070;51.042;7.056;2023-04-25T04:39:01;11.43;;;4.27;;
4112;SDS011;2070;51.042;7.056;2023-04-25T04:41:28;14.20;;;4.60;;
4112;SDS011;2070;51.042;7.056;2023-04-25T04:43:53;6.87;;;3.67;;
4112;SDS011;2070;51.042;7.056;2023-04-25T04:46:20;8.03;;;2.87;;
4112;SDS011;2070;51.042;7.056;2023-04-25T04:48:46;9.63;;;3.20;;
4112;SDS011;2070;51.042;7.056;2023-04-25T04:51:12;17.33;;;3.60;;
4112;SDS011;2070;51.042;7.056;2023-04-25T04:53:37;17.43;;;4.80;;
4112;SDS011;2070;51.042;7.056;2023-04-25T04:56:02;8.90;;;3.53;;
4112;SDS011;2070;51.042;7.056;2023-04-25T04:58:27;5.47;;;3.30;;
4112;SDS011;2070;51.042;7.056;2023-04-25T05:00:54;18.50;;;3.90;;
4112;SDS011;2070;51.042;7.056;2023-04-25T05:03:20;16.30;;;4.50;;
4112;SDS011;2070;51.042;7.056;2023-04-25T05:05:45;3.30;;;3.00;;
4112;SDS011;2070;51.042;7.056;2023-04-25T05:08:10;17.73;;;3.73;;
4112;SDS011;2070;51.042;7.056;2023-04-25T05:10:36;15.43;;;4.20;;
4112;SDS011;2070;51.042;7.056;2023-04-25T05:13:01;10.70;;;4.80;;
4112;SDS011;2070;51.042;7.056;2023-04-25T05:15:26;6.40;;;4.00;;
4112;SDS011;2070;51.042;7.056;2023-04-25T05:17:51;12.13;;;3.90;;
4112;SDS011;2070;51.042;7.056;2023-04-25T05:20:17;18.60;;;4.57;;
4112;SDS011;2070;51.042;7.056;2023-04-25T05:22:43;17.97;;;3.93;;
4112;SDS011;2070;51.042;7.056;2023-04-25T05:25:09;16.77;;;3.17;;
4112;SDS011;2070;51.042;7.056;2023-04-25T05:27:35;8.03;;;3.60;;
4112;SDS011;2070;51.042;7.056;2023-04-25T05:30:00;13.50;;;3.27;;
4112;SDS011;2070;51.042;7.056;2023-04-25T05:32:26;12.57;;;3.30;;
4112;SDS011;2070;51.042;7.056;2023-04-25T05:34:51;6.80;;;2.93;;
4112;SDS011;2070;51.042;7.056;2023-04-25T05:37:17;19.30;;;4.30;;
4112;SDS011;2070;51.042;7.056;2023-04-25T05:39:42;12.87;;;3.03;;
4112;SDS011;2070;51.042;7.056;2023-04-25T05:42:07;46.97;;;4.10;;
4112;SDS011;2070;51.042;7.056;2023-04-25T05:44:32;18.30;;;3.77;;
4112;SDS011;2070;51.042;7.056;2023-04-25T05:46:57;17.20;;;3.90;;
4112;SDS011;2070;51.042;7.056;2023-04-25T05:49:23;10.87;;;4.10;;
4112;SDS011;2070;51.042;7.056;2023-04-25T05:51:48;34.57;;;4.10;;
4112;SDS011;2070;51.042;7.056;2023-04-25T05:54:13;27.77;;;3.80;;
4112;SDS011;2070;51.042;7.056;2023-04-25T05:56:38;15.67;;;4.10;;
4112;SDS011;2070;51.042;7.056;2023-04-25T05:59:03;15.67;;;4.03;;
4112;SDS011;2070;51.042;7.056;2023-04-25T06:01:29;16.23;;;4.37;;
4112;SDS011;2070;51.042;7.056;2023-04-25T06:03:54;11.37;;;4.70;;
4112;SDS011;2070;51.042;7.056;2023-04-25T06:06:19;19.40;;;4.20;;
4112;SDS011;2070;51.042;7.056;2023-04-25T06:08:44;18.40;;;4.30;;
4112;SDS011;2070;51.042;7.056;2023-04-25T06:11:10;16.40;;;4.03;;
4112;SDS011;2070;51.042;7.056;2023-04-25T06:13:35;26.97;;;4.83;;
4112;SDS011;2070;51.042;7.056;2023-04-25T06:16:00;12.63;;;4.20;;
4112;SDS011;2070;51.042;7.056;2023-04-25T06:18:25;15.27;;;4.17;;
4112;SDS011;2070;51.042;7.056;2023-04-25T06:20:50;12.13;;;5.50;;
4112;SDS011;2070;51.042;7.056;2023-04-25T06:23:16;20.03;;;3.10;;
4112;SDS011;2070;51.042;7.056;2023-04-25T06:25:41;19.73;;;3.83;;
4112;SDS011;2070;51.042;7.056;2023-04-25T06:28:06;13.43;;;4.30;;
4112;SDS011;2070;51.042;7.056;2023-04-25T06:30:31;14.50;;;3.93;;
4112;SDS011;2070;51.042;7.056;2023-04-25T06:32:56;15.00;;;3.40;;
4112;SDS011;2070;51.042;7.056;2023-04-25T06:35:22;27.63;;;4.70;;
4112;SDS011;2070;51.042;7.056;2023-04-25T06:37:47;29.13;;;5.40;;
4112;SDS011;2070;51.042;7.056;2023-04-25T06:40:12;12.03;;;3.50;;
4112;SDS011;2070;51.042;7.056;2023-04-25T06:42:37;12.43;;;2.93;;
4112;SDS011;2070;51.042;7.056;2023-04-25T06:45:03;18.03;;;3.27;;
4112;SDS011;2070;51.042;7.056;2023-04-25T06:47:28;10.73;;;3.07;;
4112;SDS011;2070;51.042;7.056;2023-04-25T06:49:54;24.77;;;2.90;;
4112;SDS011;2070;51.042;7.056;2023-04-25T06:52:19;9.03;;;3.47;;
4112;SDS011;2070;51.042;7.056;2023-04-25T06:54:45;16.03;;;3.30;;
4112;SDS011;2070;51.042;7.056;2023-04-25T06:57:10;13.20;;;3.20;;
4112;SDS011;2070;51.042;7.056;2023-04-25T06:59:35;17.87;;;3.00;;
4112;SDS011;2070;51.042;7.056;2023-04-25T07:02:00;11.73;;;3.70;;
4112;SDS011;2070;51.042;7.056;2023-04-25T07:04:26;12.43;;;3.83;;
4112;SDS011;2070;51.042;7.056;2023-04-25T07:06:51;15.43;;;3.37;;
4112;SDS011;2070;51.042;7.056;2023-04-25T07:09:16;18.07;;;3.73;;
4112;SDS011;2070;51.042;7.056;2023-04-25T07:11:41;13.00;;;3.50;;
4112;SDS011;2070;51.042;7.056;2023-04-25T07:14:07;19.87;;;3.20;;
4112;SDS011;2070;51.042;7.056;2023-04-25T07:16:32;10.53;;;2.97;;
4112;SDS011;2070;51.042;7.056;2023-04-25T07:18:57;3.63;;;2.60;;
4112;SDS011;2070;51.042;7.056;2023-04-25T07:21:22;12.27;;;3.03;;
4112;SDS011;2070;51.042;7.056;2023-04-25T07:23:47;13.93;;;3.63;;
4112;SDS011;2070;51.042;7.056;2023-04-25T07:26:13;12.80;;;3.40;;
4112;SDS011;2070;51.042;7.056;2023-04-25T07:28:38;16.10;;;6.60;;
4112;SDS011;2070;51.042;7.056;2023-04-25T07:31:03;28.83;;;4.93;;
4112;SDS011;2070;51.042;7.056;2023-04-25T07:33:29;21.83;;;4.57;;
4112;SDS011;2070;51.042;7.056;2023-04-25T07:35:54;8.63;;;3.03;;
4112;SDS011;2070;51.042;7.056;2023-04-25T07:38:20;11.40;;;3.50;;
4112;SDS011;2070;51.042;7.056;2023-04-25T07:40:46;7.37;;;4.10;;
4112;SDS011;2070;51.042;7.056;2023-04-25T07:43:11;13.83;;;3.33;;
4112;SDS011;2070;51.042;7.056;2023-04-25T07:45:39;4.33;;;2.40;;
4112;SDS011;2070;51.042;7.056;2023-04-25T07:48:04;6.63;;;2.40;;
4112;SDS011;2070;51.042;7.056;2023-04-25T07:50:30;7.63;;;2.73;;
4112;SDS011;2070;51.042;7.056;2023-04-25T07:52:55;3.87;;;2.00;;
4112;SDS011;2070;51.042;7.056;2023-04-25T07:55:21;12.00;;;2.90;;
4112;SDS011;2070;51.042;7.056;2023-04-25T07:57:46;7.37;;;2.40;;
4112;SDS011;2070;51.042;7.056;2023-04-25T08:00:11;10.13;;;3.30;;
4112;SDS011;2070;51.042;7.056;2023-04-25T08:02:37;11.70;;;2.03;;
4112;SDS011;2070;51.042;7.056;2023-04-25T08:05:02;5.40;;;1.80;;
4112;SDS011;2070;51.042;7.056;2023-04-25T08:07:28;10.67;;;2.33;;
4112;SDS011;2070;51.042;7.056;2023-04-25T08:09:53;7.63;;;2.30;;
4112;SDS011;2070;51.042;7.056;2023-04-25T08:12:19;4.60;;;1.80;;
4112;SDS011;2070;51.042;7.056;2023-04-25T08:14:44;7.43;;;2.57;;
4112;SDS011;2070;51.042;7.056;2023-04-25T08:17:09;17.00;;;1.93;;
4112;SDS011;2070;51.042;7.056;2023-04-25T08:19:34;11.00;;;2.27;;
4112;SDS011;2070;51.042;7.056;2023-04-25T08:21:59;30.40;;;3.50;;
4112;SDS011;2070;51.042;7.056;2023-04-25T08:24:25;9.20;;;2.50;;
4112;SDS011;2070;51.042;7.056;2023-04-25T08:26:50;5.10;;;3.20;;
4112;SDS011;2070;51.042;7.056;2023-04-25T08:29:16;8.50;;;2.00;;
4112;SDS011;2070;51.042;7.056;2023-04-25T08:31:41;6.27;;;2.33;;
4112;SDS011;2070;51.042;7.056;2023-04-25T08:34:06;14.50;;;2.23;;
4112;SDS011;2070;51.042;7.056;2023-04-25T08:36:31;10.03;;;2.67;;
4112;SDS011;2070;51.042;7.056;2023-04-25T08:38:57;6.13;;;1.63;;
4112;SDS011;2070;51.042;7.056;2023-04-25T08:41:22;10.63;;;2.27;;
4112;SDS011;2070;51.042;7.056;2023-04-25T08:43:48;4.03;;;2.90;;
4112;SDS011;2070;51.042;7.056;2023-04-25T08:46:13;11.20;;;2.23;;
4112;SDS011;2070;51.042;7.056;2023-04-25T08:48:42;5.40;;;2.37;;
4112;SDS011;2070;51.042;7.056;2023-04-25T08:51:07;14.93;;;3.70;;
4112;SDS011;2070;51.042;7.056;2023-04-25T08:53:33;14.30;;;2.97;;
4112;SDS011;2070;51.042;7.056;2023-04-25T08:55:59;15.23;;;2.33;;
4112;SDS011;2070;51.042;7.056;2023-04-25T08:58:26;17.23;;;3.30;;
4112;SDS011;2070;51.042;7.056;2023-04-25T09:00:52;8.67;;;3.27;;
4112;SDS011;2070;51.042;7.056;2023-04-25T09:03:18;9.70;;;2.80;;
4112;SDS011;2070;51.042;7.056;2023-04-25T09:05:43;5.33;;;2.33;;
4112;SDS011;2070;51.042;7.056;2023-04-25T09:08:08;8.00;;;2.50;;
4112;SDS011;2070;51.042;7.056;2023-04-25T09:10:34;8.40;;;2.23;;
4112;SDS011;2070;51.042;7.056;2023-04-25T09:13:06;13.40;;;2.67;;
4112;SDS011;2070;51.042;7.056;2023-04-25T09:15:38;13.77;;;2.47;;
4112;SDS011;2070;51.042;7.056;2023-04-25T09:18:11;6.90;;;2.00;;
4112;SDS011;2070;51.042;7.056;2023-04-25T09:20:42;6.90;;;1.97;;
4112;SDS011;2070;51.042;7.056;2023-04-25T09:23:08;9.30;;;2.33;;
4112;SDS011;2070;51.042;7.056;2023-04-25T09:25:33;15.47;;;2.50;;
4112;SDS011;2070;51.042;7.056;2023-04-25T09:28:00;8.77;;;2.00;;
4112;SDS011;2070;51.042;7.056;2023-04-25T09:30:29;18.67;;;2.90;;
4112;SDS011;2070;51.042;7.056;2023-04-25T09:32:56;8.00;;;2.50;;
4112;SDS011;2070;51.042;7.056;2023-04-25T09:35:24;12.67;;;2.70;;
4112;SDS011;2070;51.042;7.056;2023-04-25T09:37:51;13.80;;;2.93;;
4112;SDS011;2070;51.042;7.056;2023-04-25T09:40:17;8.53;;;1.83;;
4112;SDS011;2070;51.042;7.056;2023-04-25T09:42:42;2.90;;;1.87;;
4112;SDS011;2070;51.042;7.056;2023-04-25T09:45:08;5.23;;;2.03;;
4112;SDS011;2070;51.042;7.056;2023-04-25T09:47:37;9.63;;;3.17;;
4112;SDS011;2070;51.042;7.056;2023-04-25T09:50:03;14.77;;;2.30;;
4112;SDS011;2070;51.042;7.056;2023-04-25T09:52:38;21.03;;;2.90;;
4112;SDS011;2070;51.042;7.056;2023-04-25T09:55:03;6.63;;;2.13;;
4112;SDS011;2070;51.042;7.056;2023-04-25T09:57:28;9.90;;;2.17;;
4112;SDS011;2070;51.042;7.056;2023-04-25T09:59:54;8.00;;;2.30;;
4112;SDS011;2070;51.042;7.056;2023-04-25T10:02:21;5.63;;;2.40;;
4112;SDS011;2070;51.042;7.056;2023-04-25T10:04:50;2.40;;;1.27;;
4112;SDS011;2070;51.042;7.056;2023-04-25T10:07:17;5.23;;;1.50;;
4112;SDS011;2070;51.042;7.056;2023-04-25T10:09:44;1.77;;;1.17;;
4112;SDS011;2070;51.042;7.056;2023-04-25T10:12:11;7.90;;;1.77;;
4112;SDS011;2070;51.042;7.056;2023-04-25T10:14:37;4.67;;;1.77;;
4112;SDS011;2070;51.042;7.056;2023-04-25T10:17:03;20.60;;;1.93;;
4112;SDS011;2070;51.042;7.056;2023-04-25T10:19:28;13.10;;;2.17;;
4112;SDS011;2070;51.042;7.056;2023-04-25T10:24:38;5.07;;;1.80;;
4112;SDS011;2070;51.042;7.056;2023-04-25T10:27:04;5.27;;;2.77;;
4112;SDS011;2070;51.042;7.056;2023-04-25T10:29:30;9.77;;;1.90;;
4112;SDS011;2070;51.042;7.056;2023-04-25T10:31:55;6.87;;;1.80;;
4112;SDS011;2070;51.042;7.056;2023-04-25T10:34:25;4.60;;;1.87;;
4112;SDS011;2070;51.042;7.056;2023-04-25T10:37:02;4.67;;;1.77;;
4112;SDS011;2070;51.042;7.056;2023-04-25T10:39:28;7.23;;;2.40;;
4112;SDS011;2070;51.042;7.056;2023-04-25T10:41:55;11.43;;;1.60;;
4112;SDS011;2070;51.042;7.056;2023-04-25T10:44:21;13.87;;;2.03;;
4112;SDS011;2070;51.042;7.056;2023-04-25T10:46:46;9.40;;;2.50;;
4112;SDS011;2070;51.042;7.056;2023-04-25T10:49:15;6.10;;;1.97;;
4112;SDS011;2070;51.042;7.056;2023-04-25T10:51:57;5.13;;;1.13;;
4112;SDS011;2070;51.042;7.056;2023-04-25T10:54:35;5.40;;;1.60;;
4112;SDS011;2070;51.042;7.056;2023-04-25T10:57:04;3.20;;;1.27;;
4112;SDS011;2070;51.042;7.056;2023-04-25T10:59:30;3.83;;;1.10;;
4112;SDS011;2070;51.042;7.056;2023-04-25T11:01:55;8.03;;;2.40;;
4112;SDS011;2070;51.042;7.056;2023-04-25T11:09:20;3.37;;;1.50;;
4112;SDS011;2070;51.042;7.056;2023-04-25T11:11:54;4.00;;;1.10;;
4112;SDS011;2070;51.042;7.056;2023-04-25T11:14:20;1.87;;;1.13;;
4112;SDS011;2070;51.042;7.056;2023-04-25T11:16:45;8.60;;;1.70;;
4112;SDS011;2070;51.042;7.056;2023-04-25T11:19:11;4.90;;;1.70;;
4112;SDS011;2070;51.042;7.056;2023-04-25T11:21:36;5.00;;;1.63;;
4112;SDS011;2070;51.042;7.056;2023-04-25T11:24:01;2.73;;;1.50;;
4112;SDS011;2070;51.042;7.056;2023-04-25T11:26:27;17.00;;;1.80;;
4112;SDS011;2070;51.042;7.056;2023-04-25T11:28:56;7.03;;;1.97;;
4112;SDS011;2070;51.042;7.056;2023-04-25T11:31:21;8.00;;;1.83;;
4112;SDS011;2070;51.042;7.056;2023-04-25T11:33:47;3.10;;;1.30;;
4112;SDS011;2070;51.042;7.056;2023-04-25T11:36:12;3.27;;;1.40;;
4112;SDS011;2070;51.042;7.056;2023-04-25T11:38:37;5.93;;;1.00;;
4112;SDS011;2070;51.042;7.056;2023-04-25T11:41:03;5.73;;;1.93;;
4112;SDS011;2070;51.042;7.056;2023-04-25T11:43:28;4.27;;;1.40;;
4112;SDS011;2070;51.042;7.056;2023-04-25T11:45:53;4.20;;;1.03;;
4112;SDS011;2070;51.042;7.056;2023-04-25T11:48:18;7.73;;;1.37;;
4112;SDS011;2070;51.042;7.056;2023-04-25T11:50:44;1.50;;;1.00;;
4112;SDS011;2070;51.042;7.056;2023-04-25T11:53:10;9.40;;;1.80;;
4112;SDS011;2070;51.042;7.056;2023-04-25T11:55:35;11.80;;;1.33;;
4112;SDS011;2070;51.042;7.056;2023-04-25T11:58:01;3.93;;;1.20;;
4112;SDS011;2070;51.042;7.056;2023-04-25T12:00:27;5.23;;;1.33;;
4112;SDS011;2070;51.042;7.056;2023-04-25T12:02:53;3.37;;;1.23;;
4112;SDS011;2070;51.042;7.056;2023-04-25T12:05:19;1.90;;;1.20;;
4112;SDS011;2070;51.042;7.056;2023-04-25T12:07:45;3.50;;;1.50;;
4112;SDS011;2070;51.042;7.056;2023-04-25T12:10:11;7.20;;;1.53;;
4112;SDS011;2070;51.042;7.056;2023-04-25T12:12:37;4.37;;;1.63;;
4112;SDS011;2070;51.042;7.056;2023-04-25T12:15:10;20.83;;;1.67;;
4112;SDS011;2070;51.042;7.056;2023-04-25T12:17:35;4.67;;;1.57;;
4112;SDS011;2070;51.042;7.056;2023-04-25T12:20:09;5.80;;;1.17;;
4112;SDS011;2070;51.042;7.056;2023-04-25T12:22:35;5.03;;;1.67;;
4112;SDS011;2070;51.042;7.056;2023-04-25T12:25:01;17.60;;;1.80;;
4112;SDS011;2070;51.042;7.056;2023-04-25T12:27:30;5.97;;;1.60;;
4112;SDS011;2070;51.042;7.056;2023-04-25T12:29:55;4.67;;;1.37;;
4112;SDS011;2070;51.042;7.056;2023-04-25T12:32:21;2.40;;;1.27;;
4112;SDS011;2070;51.042;7.056;2023-04-25T12:34:46;6.53;;;1.63;;
4112;SDS011;2070;51.042;7.056;2023-04-25T12:37:12;10.10;;;2.67;;
4112;SDS011;2070;51.042;7.056;2023-04-25T12:39:37;4.13;;;1.40;;
4112;SDS011;2070;51.042;7.056;2023-04-25T12:42:03;2.40;;;1.47;;
4112;SDS011;2070;51.042;7.056;2023-04-25T12:44:28;3.03;;;1.63;;
4112;SDS011;2070;51.042;7.056;2023-04-25T12:46:53;3.57;;;1.67;;
4112;SDS011;2070;51.042;7.056;2023-04-25T12:49:19;10.60;;;1.70;;
4112;SDS011;2070;51.042;7.056;2023-04-25T12:51:45;6.03;;;1.30;;
4112;SDS011;2070;51.042;7.056;2023-04-25T12:54:10;8.63;;;2.47;;
4112;SDS011;2070;51.042;7.056;2023-04-25T12:56:35;3.27;;;1.30;;
4112;SDS011;2070;51.042;7.056;2023-04-25T12:59:01;4.90;;;2.00;;
4112;SDS011;2070;51.042;7.056;2023-04-25T13:01:27;4.83;;;1.57;;
4112;SDS011;2070;51.042;7.056;2023-04-25T13:03:53;3.00;;;1.70;;
4112;SDS011;2070;51.042;7.056;2023-04-25T13:06:18;11.13;;;1.60;;
4112;SDS011;2070;51.042;7.056;2023-04-25T13:08:44;2.23;;;1.40;;
4112;SDS011;2070;51.042;7.056;2023-04-25T13:11:09;4.57;;;1.73;;
4112;SDS011;2070;51.042;7.056;2023-04-25T13:13:35;3.53;;;1.57;;
4112;SDS011;2070;51.042;7.056;2023-04-25T13:16:01;3.43;;;1.30;;
4112;SDS011;2070;51.042;7.056;2023-04-25T13:18:27;4.73;;;1.83;;
4112;SDS011;2070;51.042;7.056;2023-04-25T13:20:52;2.83;;;1.30;;
4112;SDS011;2070;51.042;7.056;2023-04-25T13:23:18;3.23;;;1.47;;
4112;SDS011;2070;51.042;7.056;2023-04-25T13:25:43;3.70;;;1.60;;
4112;SDS011;2070;51.042;7.056;2023-04-25T13:28:08;3.90;;;1.83;;
4112;SDS011;2070;51.042;7.056;2023-04-25T13:30:33;2.40;;;1.97;;
4112;SDS011;2070;51.042;7.056;2023-04-25T13:32:58;2.33;;;1.87;;
4112;SDS011;2070;51.042;7.056;2023-04-25T13:35:28;7.00;;;2.00;;
4112;SDS011;2070;51.042;7.056;2023-04-25T13:37:53;4.50;;;1.93;;
4112;SDS011;2070;51.042;7.056;2023-04-25T13:40:19;6.97;;;2.27;;
4112;SDS011;2070;51.042;7.056;2023-04-25T13:42:44;11.93;;;2.13;;
4112;SDS011;2070;51.042;7.056;2023-04-25T13:45:10;7.97;;;2.20;;
4112;SDS011;2070;51.042;7.056;2023-04-25T13:47:35;4.80;;;2.50;;
4112;SDS011;2070;51.042;7.056;2023-04-25T13:50:01;2.40;;;1.87;;
4112;SDS011;2070;51.042;7.056;2023-04-25T13:52:28;3.53;;;1.67;;
4112;SDS011;2070;51.042;7.056;2023-04-25T13:54:53;5.03;;;2.13;;
4112;SDS011;2070;51.042;7.056;2023-04-25T13:57:18;6.87;;;2.10;;
4112;SDS011;2070;51.042;7.056;2023-04-25T13:59:44;10.40;;;2.47;;
4112;SDS011;2070;51.042;7.056;2023-04-25T14:02:09;1.93;;;1.37;;
4112;SDS011;2070;51.042;7.056;2023-04-25T14:04:34;6.53;;;2.73;;
4112;SDS011;2070;51.042;7.056;2023-04-25T14:06:59;1.53;;;1.37;;
4112;SDS011;2070;51.042;7.056;2023-04-25T14:09:25;2.93;;;2.13;;
4112;SDS011;2070;51.042;7.056;2023-04-25T14:11:52;1.30;;;1.20;;
4112;SDS011;2070;51.042;7.056;2023-04-25T14:14:17;9.00;;;2.27;;
4112;SDS011;2070;51.042;7.056;2023-04-25T14:16:42;6.03;;;2.13;;
4112;SDS011;2070;51.042;7.056;2023-04-25T14:19:08;4.23;;;1.57;;
4112;SDS011;2070;51.042;7.056;2023-04-25T14:21:33;5.73;;;1.43;;
4112;SDS011;2070;51.042;7.056;2023-04-25T14:23:58;3.37;;;1.40;;
4112;SDS011;2070;51.042;7.056;2023-04-25T14:26:23;4.73;;;1.73;;
4112;SDS011;2070;51.042;7.056;2023-04-25T14:28:50;7.33;;;1.80;;
4112;SDS011;2070;51.042;7.056;2023-04-25T14:31:15;4.93;;;1.27;;
4112;SDS011;2070;51.042;7.056;2023-04-25T14:33:41;5.43;;;1.47;;
4112;SDS011;2070;51.042;7.056;2023-04-25T14:36:07;7.00;;;1.73;;
4112;SDS011;2070;51.042;7.056;2023-04-25T14:38:32;4.47;;;1.60;;
4112;SDS011;2070;51.042;7.056;2023-04-25T14:40:58;1.33;;;1.10;;
4112;SDS011;2070;51.042;7.056;2023-04-25T14:43:23;1.60;;;0.90;;
4112;SDS011;2070;51.042;7.056;2023-04-25T14:45:48;4.20;;;1.23;;
4112;SDS011;2070;51.042;7.056;2023-04-25T14:48:13;1.40;;;0.90;;
4112;SDS011;2070;51.042;7.056;2023-04-25T14:50:39;4.00;;;1.47;;
4112;SDS011;2070;51.042;7.056;2023-04-25T14:53:05;1.60;;;1.10;;
4112;SDS011;2070;51.042;7.056;2023-04-25T14:55:30;5.03;;;1.37;;
4112;SDS011;2070;51.042;7.056;2023-04-25T14:57:55;3.97;;;1.20;;
4112;SDS011;2070;51.042;7.056;2023-04-25T15:00:21;2.60;;;1.30;;
4112;SDS011;2070;51.042;7.056;2023-04-25T15:02:47;4.87;;;2.17;;
4112;SDS011;2070;51.042;7.056;2023-04-25T15:05:12;2.57;;;1.33;;